createdAt,value
2022-08-23T00:02:23.017Z,21.67
2022-08-23T00:05:03.477Z,21.62
2022-08-23T00:07:42.676Z,21.63
2022-08-23T00:10:12.380Z,21.37
2022-08-23T00:12:40.132Z,21.63
2022-08-23T00:15:09.658Z,21.33
2022-08-23T00:17:37.559Z,21.52
2022-08-23T00:20:11.595Z,21.53
2022-08-23T00:22:40.139Z,21.60
2022-08-23T00:25:10.740Z,21.57
2022-08-23T00:27:38.666Z,21.46
2022-08-23T00:30:08.880Z,21.39
2022-08-23T00:32:37.331Z,21.31
2022-08-23T00:35:06.241Z,21.30
2022-08-23T00:37:33.703Z,21.23
2022-08-23T00:40:01.663Z,21.21
2022-08-23T00:43:09.342Z,21.13
2022-08-23T00:46:05.956Z,21.15
2022-08-23T00:48:35.606Z,21.08
2022-08-23T00:51:08.114Z,21.13
2022-08-23T00:53:39.257Z,20.98
2022-08-23T00:56:09.592Z,21.02
2022-08-23T00:58:36.693Z,21.03
2022-08-23T01:01:06.190Z,20.84
2022-08-23T01:03:38.571Z,20.88
2022-08-23T01:06:22.720Z,20.78
2022-08-23T01:08:55.846Z,20.86
2022-08-23T01:11:32.789Z,20.75
2022-08-23T01:14:11.711Z,20.77
2022-08-23T01:16:52.549Z,20.75
2022-08-23T01:19:30.419Z,20.80
2022-08-23T01:22:23.985Z,20.62
2022-08-23T01:25:05.915Z,20.55
2022-08-23T01:27:38.349Z,20.43
2022-08-23T01:30:09.164Z,20.46
2022-08-23T01:32:44.922Z,20.12
2022-08-23T01:35:12.796Z,20.06
2022-08-23T01:37:41.712Z,20.38
2022-08-23T01:40:09.335Z,20.31
2022-08-23T01:42:36.522Z,20.24
2022-08-23T01:45:05.390Z,19.98
2022-08-23T01:47:33.281Z,20.11
2022-08-23T01:50:00.499Z,20.03
2022-08-23T01:52:29.087Z,19.96
2022-08-23T01:54:57.438Z,19.86
2022-08-23T01:57:24.669Z,19.78
2022-08-23T01:59:53.455Z,19.71
2022-08-23T02:02:21.156Z,19.66
2022-08-23T02:04:48.230Z,19.50
2022-08-23T02:07:15.447Z,19.46
2022-08-23T02:09:42.928Z,19.49
2022-08-23T02:12:10.865Z,19.42
2022-08-23T02:14:41.919Z,19.35
2022-08-23T02:17:17.763Z,19.24
2022-08-23T02:19:45.323Z,19.22
2022-08-23T02:22:13.037Z,19.05
2022-08-23T02:24:43.611Z,19.12
2022-08-23T02:27:11.986Z,19.08
2022-08-23T02:29:44.066Z,19.06
2022-08-23T02:32:13.252Z,18.76
2022-08-23T02:37:25.489Z,18.96
2022-08-23T02:39:52.860Z,18.97
2022-08-23T02:42:20.156Z,18.89
2022-08-23T02:44:47.337Z,18.94
2022-08-23T02:47:14.733Z,18.50
2022-08-23T02:49:49.302Z,18.77
2022-08-23T02:52:16.639Z,18.70
2022-08-23T02:54:44.463Z,18.72
2022-08-23T02:57:11.644Z,18.62
2022-08-23T02:59:38.942Z,18.60
2022-08-23T03:02:06.283Z,18.37
2022-08-23T03:04:39.013Z,18.46
2022-08-23T03:07:06.174Z,18.40
2022-08-23T03:09:34.549Z,18.36
2022-08-23T03:12:01.733Z,18.60
2022-08-23T03:14:32.370Z,18.49
2022-08-23T03:17:02.566Z,18.50
2022-08-23T03:19:29.930Z,18.44
2022-08-23T03:21:57.108Z,18.25
2022-08-23T03:24:25.563Z,18.28
2022-08-23T03:26:52.726Z,18.18
2022-08-23T03:29:20.144Z,18.22
2022-08-23T03:32:00.510Z,18.31
2022-08-23T03:34:29.396Z,18.42
2022-08-23T03:36:57.645Z,18.51
2022-08-23T03:39:24.886Z,18.42
2022-08-23T03:41:52.495Z,18.50
2022-08-23T03:44:19.824Z,18.54
2022-08-23T03:46:48.026Z,18.54
2022-08-23T03:49:15.064Z,18.53
2022-08-23T03:51:45.906Z,18.44
2022-08-23T03:54:13.758Z,18.41
2022-08-23T03:56:54.834Z,18.17
2022-08-23T03:59:22.444Z,18.24
2022-08-23T04:01:49.803Z,18.12
2022-08-23T04:04:17.627Z,18.00
2022-08-23T04:07:04.686Z,17.92
2022-08-23T04:09:31.994Z,17.80
2022-08-23T04:11:59.119Z,17.74
2022-08-23T04:14:26.289Z,17.67
2022-08-23T04:16:53.681Z,17.56
2022-08-23T04:19:23.509Z,17.46
2022-08-23T04:22:00.715Z,17.49
2022-08-23T04:24:34.075Z,17.39
2022-08-23T04:27:01.117Z,17.40
2022-08-23T04:29:34.455Z,17.37
2022-08-23T04:32:05.430Z,17.37
2022-08-23T04:34:36.891Z,17.31
2022-08-23T04:37:04.130Z,17.35
2022-08-23T04:39:56.936Z,17.37
2022-08-23T04:42:25.884Z,17.42
2022-08-23T04:44:53.159Z,17.33
2022-08-23T04:47:20.452Z,17.38
2022-08-23T04:49:48.657Z,17.29
2022-08-23T04:52:19.175Z,17.41
2022-08-23T04:54:47.564Z,17.39
2022-08-23T04:57:25.831Z,17.40
2022-08-23T04:59:53.637Z,17.49
2022-08-23T05:02:20.995Z,17.60
2022-08-23T05:04:48.185Z,17.64
2022-08-23T05:07:15.776Z,17.69
2022-08-23T05:09:43.261Z,17.66
2022-08-23T05:12:11.534Z,17.38
2022-08-23T05:14:38.782Z,17.72
2022-08-23T05:17:06.010Z,17.56
2022-08-23T05:19:37.542Z,17.66
2022-08-23T05:22:12.268Z,17.50
2022-08-23T05:25:06.825Z,17.40
2022-08-23T05:27:35.707Z,17.65
2022-08-23T05:30:04.462Z,17.69
2022-08-23T05:32:33.589Z,17.38
2022-08-23T05:35:01.043Z,17.80
2022-08-23T05:37:28.627Z,17.90
2022-08-23T05:39:55.711Z,17.75
2022-08-23T05:42:23.454Z,18.05
2022-08-23T05:44:50.549Z,18.29
2022-08-23T05:47:24.869Z,18.37
2022-08-23T05:50:12.204Z,18.48
2022-08-23T05:52:40.401Z,18.61
2022-08-23T05:55:08.322Z,18.24
2022-08-23T05:57:41.789Z,18.71
2022-08-23T06:00:15.427Z,18.77
2022-08-23T06:02:53.341Z,18.91
2022-08-23T06:05:21.296Z,18.98
2022-08-23T06:07:49.838Z,18.73
2022-08-23T06:10:21.275Z,19.07
2022-08-23T06:12:54.738Z,19.23
2022-08-23T06:15:21.996Z,19.40
2022-08-23T06:17:49.034Z,19.62
2022-08-23T06:20:16.242Z,19.60
2022-08-23T06:23:01.265Z,19.84
2022-08-23T06:25:29.151Z,20.07
2022-08-23T06:28:09.588Z,20.12
2022-08-23T06:30:39.844Z,20.15
2022-08-23T06:33:27.322Z,20.32
2022-08-23T06:36:13.702Z,20.48
2022-08-23T06:38:57.947Z,20.54
2022-08-23T06:41:45.689Z,20.74
2022-08-23T06:44:27.669Z,20.78
2022-08-23T06:47:00.166Z,20.89
2022-08-23T06:49:27.822Z,21.03
2022-08-23T06:51:59.984Z,21.02
2022-08-23T06:54:37.720Z,21.14
2022-08-23T06:57:32.425Z,21.28
2022-08-23T07:00:22.266Z,21.48
2022-08-23T07:03:13.122Z,21.66
2022-08-23T07:05:58.532Z,21.62
2022-08-23T07:08:28.429Z,21.67
2022-08-23T07:10:56.427Z,21.83
2022-08-23T07:13:23.718Z,21.74
2022-08-23T07:15:50.986Z,21.64
2022-08-23T07:18:20.733Z,21.64
2022-08-23T07:20:48.880Z,21.74
2022-08-23T07:23:17.255Z,21.87
2022-08-23T07:25:44.555Z,21.93
2022-08-23T07:28:15.821Z,21.90
2022-08-23T07:30:45.257Z,21.83
2022-08-23T07:33:13.533Z,22.19
2022-08-23T07:36:00.701Z,22.14
2022-08-23T07:38:30.572Z,22.17
2022-08-23T07:40:58.787Z,22.02
2022-08-23T07:43:26.182Z,22.15
2022-08-23T07:45:53.765Z,22.00
2022-08-23T07:48:43.279Z,22.48
2022-08-23T07:51:19.912Z,22.44
2022-08-23T07:53:48.090Z,22.64
2022-08-23T07:56:20.040Z,22.59
2022-08-23T07:58:57.955Z,22.33
2022-08-23T08:01:44.614Z,22.34
2022-08-23T08:04:13.096Z,22.36
2022-08-23T08:07:04.774Z,22.35
2022-08-23T08:09:38.180Z,22.35
2022-08-23T08:12:05.881Z,22.43
2022-08-23T08:14:33.810Z,22.70
2022-08-23T08:17:03.945Z,22.72
2022-08-23T08:19:47.755Z,23.30
2022-08-23T08:22:38.679Z,23.40
2022-08-23T08:25:12.026Z,23.51
2022-08-23T08:27:41.321Z,23.71
2022-08-23T08:30:10.297Z,23.62
2022-08-23T08:32:46.723Z,23.78
2022-08-23T08:35:14.437Z,23.76
2022-08-23T08:37:41.548Z,23.96
2022-08-23T08:40:09.317Z,24.02
2022-08-23T08:43:06.976Z,23.89
2022-08-23T08:46:03.762Z,24.38
2022-08-23T08:48:40.479Z,24.47
2022-08-23T08:51:28.684Z,24.72
2022-08-23T08:53:58.801Z,24.81
2022-08-23T08:56:33.282Z,24.48
2022-08-23T08:59:19.159Z,24.97
2022-08-23T09:01:48.691Z,25.00
2022-08-23T09:04:22.422Z,25.02
2022-08-23T09:06:53.520Z,25.14
2022-08-23T09:09:44.449Z,25.34
2022-08-23T09:12:23.371Z,25.55
2022-08-23T09:15:18.822Z,25.54
2022-08-23T09:17:56.289Z,25.65
2022-08-23T09:20:33.342Z,25.61
2022-08-23T09:23:17.141Z,25.76
2022-08-23T09:25:53.759Z,25.94
2022-08-23T09:28:24.894Z,26.04
2022-08-23T09:30:56.188Z,26.09
2022-08-23T09:33:39.135Z,26.00
2022-08-23T09:36:14.494Z,25.84
2022-08-23T09:38:53.592Z,26.12
2022-08-23T09:41:27.320Z,26.20
2022-08-23T09:43:58.893Z,26.33
2022-08-23T09:46:35.683Z,26.24
2022-08-23T09:49:33.323Z,26.49
2022-08-23T09:52:22.194Z,26.04
2022-08-23T09:54:58.023Z,25.73
2022-08-23T09:57:28.581Z,26.37
2022-08-23T10:00:17.625Z,26.41
2022-08-23T10:02:50.739Z,26.52
2022-08-23T10:05:28.577Z,26.71
2022-08-23T10:08:00.471Z,26.87
2022-08-23T10:10:43.479Z,26.85
2022-08-23T10:13:15.469Z,26.78
2022-08-23T10:16:09.549Z,27.00
2022-08-23T10:18:48.853Z,27.04
2022-08-23T10:21:27.000Z,27.16
2022-08-23T10:24:22.809Z,27.26
2022-08-23T10:27:03.718Z,27.41
2022-08-23T10:29:37.777Z,27.00
2022-08-23T10:32:44.453Z,27.41
2022-08-23T10:35:32.098Z,27.52
2022-08-23T10:38:12.853Z,27.65
2022-08-23T10:41:06.461Z,27.73
2022-08-23T10:44:05.157Z,27.84
2022-08-23T10:46:48.575Z,27.78
2022-08-23T10:49:16.330Z,27.89
2022-08-23T10:51:48.833Z,28.08
2022-08-23T10:54:34.859Z,28.09
2022-08-23T10:57:06.243Z,27.77
2022-08-23T10:59:36.866Z,27.88
2022-08-23T11:02:29.311Z,27.61
2022-08-23T11:05:30.010Z,27.80
2022-08-23T11:08:03.481Z,27.66
2022-08-23T11:10:40.222Z,27.75
2022-08-23T11:13:10.826Z,27.78
2022-08-23T11:15:46.223Z,27.55
2022-08-23T11:18:33.753Z,27.98
2022-08-23T11:21:07.557Z,28.26
2022-08-23T11:23:54.388Z,28.50
2022-08-23T11:26:22.316Z,28.94
2022-08-23T11:28:51.771Z,28.96
2022-08-23T11:31:31.827Z,28.85
2022-08-23T11:34:06.722Z,28.33
2022-08-23T11:36:36.084Z,28.60
2022-08-23T11:39:10.096Z,28.90
2022-08-23T11:41:57.127Z,28.93
2022-08-23T11:44:41.990Z,28.87
2022-08-23T11:47:12.237Z,28.87
2022-08-23T11:50:06.747Z,28.61
2022-08-23T11:52:36.518Z,28.90
2022-08-23T11:55:12.805Z,28.93
2022-08-23T11:58:05.615Z,28.74
2022-08-23T12:00:51.413Z,29.23
2022-08-23T12:03:27.118Z,29.55
2022-08-23T12:05:54.291Z,29.53
2022-08-23T12:08:23.137Z,30.03
2022-08-23T12:10:51.005Z,30.02
2022-08-23T12:13:18.417Z,30.57
2022-08-23T12:16:16.536Z,30.52
2022-08-23T12:18:57.248Z,30.53
2022-08-23T12:21:42.919Z,30.17
2022-08-23T12:24:28.623Z,29.90
2022-08-23T12:27:27.850Z,29.75
2022-08-23T12:30:17.499Z,29.61
2022-08-23T12:32:50.590Z,29.49
2022-08-23T12:35:50.702Z,29.82
2022-08-23T12:38:46.059Z,30.13
2022-08-23T12:41:48.574Z,30.56
2022-08-23T12:44:19.704Z,30.50
2022-08-23T12:46:49.127Z,30.37
2022-08-23T12:49:33.699Z,29.93
2022-08-23T12:52:09.663Z,29.95
2022-08-23T12:54:45.772Z,29.87
2022-08-23T12:57:17.276Z,29.84
2022-08-23T13:00:18.361Z,29.59
2022-08-23T13:03:19.806Z,29.66
2022-08-23T13:05:52.802Z,29.70
2022-08-23T13:08:34.155Z,29.53
2022-08-23T13:11:07.393Z,29.87
2022-08-23T13:13:38.781Z,30.17
2022-08-23T13:16:30.458Z,30.29
2022-08-23T13:19:16.046Z,30.34
2022-08-23T13:21:43.626Z,30.79
2022-08-23T13:24:38.598Z,30.99
2022-08-23T13:27:22.519Z,31.20
2022-08-23T13:29:54.276Z,31.28
2022-08-23T13:32:31.723Z,30.98
2022-08-23T13:35:23.889Z,30.57
2022-08-23T13:37:55.114Z,30.55
2022-08-23T13:40:31.609Z,30.79
2022-08-23T13:43:05.418Z,30.64
2022-08-23T13:45:46.630Z,30.84
2022-08-23T13:48:20.344Z,31.20
2022-08-23T13:50:48.491Z,31.45
2022-08-23T13:53:16.379Z,31.34
2022-08-23T13:55:45.670Z,31.44
2022-08-23T13:58:18.064Z,31.37
2022-08-23T14:00:55.255Z,30.97
2022-08-23T14:03:24.272Z,30.58
2022-08-23T14:05:52.791Z,30.49
2022-08-23T14:08:20.636Z,30.31
2022-08-23T14:10:47.832Z,30.45
2022-08-23T14:13:16.904Z,30.52
2022-08-23T14:18:33.268Z,30.34
2022-08-23T14:21:00.622Z,30.44
2022-08-23T14:23:27.761Z,30.44
2022-08-23T14:25:56.689Z,30.39
2022-08-23T14:28:27.464Z,30.66
2022-08-23T14:30:57.560Z,30.63
2022-08-23T14:33:25.018Z,30.85
2022-08-23T14:35:52.405Z,31.10
2022-08-23T14:38:19.713Z,31.33
2022-08-23T14:40:53.398Z,31.18
2022-08-23T14:43:21.687Z,31.56
2022-08-23T14:45:49.311Z,31.28
2022-08-23T14:48:17.488Z,31.04
2022-08-23T14:50:45.219Z,30.90
2022-08-23T14:53:17.902Z,30.73
2022-08-23T14:55:45.863Z,30.63
2022-08-23T14:58:12.894Z,30.68
2022-08-23T15:00:40.206Z,30.54
2022-08-23T15:03:10.199Z,30.48
2022-08-23T15:05:37.461Z,30.26
2022-08-23T15:08:04.482Z,30.28
2022-08-23T15:13:26.147Z,29.83
2022-08-23T15:15:54.852Z,29.73
2022-08-23T15:18:23.194Z,29.71
2022-08-23T15:20:52.200Z,29.65
2022-08-23T15:23:20.288Z,29.67
2022-08-23T15:25:47.646Z,29.60
2022-08-23T15:28:16.503Z,29.64
2022-08-23T15:30:44.808Z,29.72
2022-08-23T15:33:12.065Z,29.77
2022-08-23T15:35:46.941Z,29.63
2022-08-23T15:38:16.074Z,29.71
2022-08-23T15:40:43.222Z,29.71
2022-08-23T15:43:10.847Z,29.82
2022-08-23T15:45:38.587Z,29.65
2022-08-23T15:48:15.670Z,29.87
2022-08-23T15:50:45.630Z,29.95
2022-08-23T15:53:13.745Z,29.71
2022-08-23T15:55:42.096Z,30.12
2022-08-23T15:58:14.709Z,30.51
2022-08-23T16:00:41.833Z,30.89
2022-08-23T16:03:19.492Z,30.76
2022-08-23T16:05:50.737Z,30.62
2022-08-23T16:08:30.522Z,30.59
2022-08-23T16:10:58.156Z,30.51
2022-08-23T16:13:26.349Z,30.50
2022-08-23T16:15:53.552Z,30.50
2022-08-23T16:18:20.708Z,30.42
2022-08-23T16:20:47.748Z,30.19
2022-08-23T16:23:15.054Z,30.02
2022-08-23T16:25:42.844Z,30.21
2022-08-23T16:28:10.036Z,30.47
2022-08-23T16:30:37.255Z,30.17
2022-08-23T16:33:06.278Z,30.09
2022-08-23T16:35:33.343Z,30.12
2022-08-23T16:38:00.594Z,29.76
2022-08-23T16:40:27.968Z,29.88
2022-08-23T16:42:56.253Z,29.85
2022-08-23T16:45:25.736Z,29.48
2022-08-23T16:47:53.969Z,29.69
2022-08-23T16:50:21.410Z,29.51
2022-08-23T16:52:48.429Z,29.83
2022-08-23T16:55:15.725Z,29.64
2022-08-23T16:57:42.798Z,29.68
2022-08-23T17:00:12.887Z,29.51
2022-08-23T17:02:40.839Z,30.26
2022-08-23T17:05:11.579Z,30.84
2022-08-23T17:07:39.425Z,32.99
2022-08-23T17:10:08.866Z,34.17
2022-08-23T17:12:39.744Z,35.14
2022-08-23T17:15:08.478Z,36.03
2022-08-23T17:17:35.640Z,36.09
2022-08-23T17:20:03.586Z,35.97
2022-08-23T17:22:33.728Z,35.51
2022-08-23T17:25:00.849Z,35.53
2022-08-23T17:27:27.841Z,34.98
2022-08-23T17:29:54.910Z,33.22
2022-08-23T17:32:22.018Z,31.93
2022-08-23T17:34:49.050Z,31.03
2022-08-23T17:37:22.901Z,30.24
2022-08-23T17:39:51.221Z,29.69
2022-08-23T17:42:21.301Z,29.12
2022-08-23T17:44:48.823Z,29.01
2022-08-23T17:47:18.081Z,28.69
2022-08-23T17:49:46.665Z,28.42
2022-08-23T17:52:13.880Z,27.93
2022-08-23T17:54:41.209Z,27.96
2022-08-23T17:57:10.524Z,27.67
2022-08-23T17:59:37.996Z,27.41
2022-08-23T18:02:06.573Z,27.62
2022-08-23T18:04:34.048Z,27.58
2022-08-23T18:07:01.973Z,27.49
2022-08-23T18:09:29.041Z,27.29
2022-08-23T18:11:56.489Z,27.05
2022-08-23T18:14:23.608Z,26.94
2022-08-23T18:16:51.614Z,26.60
2022-08-23T18:19:18.855Z,26.62
2022-08-23T18:21:46.921Z,26.34
2022-08-23T18:24:14.412Z,26.45
2022-08-23T18:27:01.004Z,26.14
2022-08-23T18:29:29.426Z,26.07
2022-08-23T18:31:56.788Z,25.81
2022-08-23T18:34:23.946Z,25.96
2022-08-23T18:36:51.242Z,25.62
2022-08-23T18:39:31.295Z,25.70
2022-08-23T18:42:01.563Z,25.47
2022-08-23T18:44:29.908Z,25.41
2022-08-23T18:46:58.140Z,25.24
2022-08-23T18:49:25.306Z,24.94
2022-08-23T18:51:52.516Z,25.10
2022-08-23T18:54:19.884Z,25.13
2022-08-23T18:56:47.347Z,24.99
2022-08-23T18:59:14.423Z,24.89
2022-08-23T19:01:42.634Z,24.74
2022-08-23T19:04:13.253Z,24.67
2022-08-23T19:06:40.961Z,24.62
2022-08-23T19:09:09.189Z,24.59
2022-08-23T19:11:41.282Z,24.21
2022-08-23T19:14:10.700Z,24.47
2022-08-23T19:16:38.975Z,24.49
2022-08-23T19:19:06.794Z,24.47
2022-08-23T19:21:34.016Z,24.28
2022-08-23T19:24:01.731Z,24.06
2022-08-23T19:26:31.877Z,24.01
2022-08-23T19:28:59.427Z,23.93
2022-08-23T19:31:31.843Z,23.71
2022-08-23T19:34:01.682Z,23.51
2022-08-23T19:36:45.155Z,23.82
2022-08-23T19:39:13.766Z,23.69
2022-08-23T19:41:41.204Z,23.66
2022-08-23T19:44:09.265Z,23.31
2022-08-23T19:46:41.045Z,23.60
2022-08-23T19:49:11.864Z,23.38
2022-08-23T19:51:39.796Z,23.28
2022-08-23T19:54:11.533Z,23.23
2022-08-23T19:56:57.596Z,22.90
2022-08-23T19:59:30.453Z,22.92
2022-08-23T20:01:58.710Z,23.00
2022-08-23T20:04:28.491Z,23.13
2022-08-23T20:06:57.546Z,22.79
2022-08-23T20:09:26.696Z,22.81
2022-08-23T20:11:53.745Z,22.88
2022-08-23T20:14:23.686Z,22.71
2022-08-23T20:16:50.974Z,22.69
2022-08-23T20:19:18.526Z,22.67
2022-08-23T20:21:45.614Z,22.78
2022-08-23T20:24:14.541Z,22.89
2022-08-23T20:26:45.127Z,22.74
2022-08-23T20:29:17.090Z,22.66
2022-08-23T20:32:00.154Z,22.66
2022-08-23T20:34:28.393Z,22.57
2022-08-23T20:36:56.073Z,22.39
2022-08-23T20:39:24.344Z,22.54
2022-08-23T20:41:52.518Z,22.63
2022-08-23T20:44:21.665Z,22.54
2022-08-23T20:46:53.758Z,22.49
2022-08-23T20:49:22.310Z,22.38
2022-08-23T20:51:50.227Z,22.23
2022-08-23T20:54:18.173Z,22.26
2022-08-23T20:56:45.680Z,22.32
2022-08-23T20:59:15.496Z,22.20
2022-08-23T21:01:42.566Z,21.95
2022-08-23T21:04:10.287Z,21.80
2022-08-23T21:06:45.209Z,21.73
2022-08-23T21:09:19.580Z,21.90
2022-08-23T21:11:48.416Z,21.83
2022-08-23T21:14:17.707Z,21.53
2022-08-23T21:16:46.125Z,21.63
2022-08-23T21:19:14.504Z,21.46
2022-08-23T21:21:42.277Z,21.59
2022-08-23T21:24:11.179Z,21.83
2022-08-23T21:26:38.665Z,21.83
2022-08-23T21:29:07.567Z,21.80
2022-08-23T21:31:34.992Z,21.23
2022-08-23T21:34:02.244Z,21.29
2022-08-23T21:36:29.507Z,21.28
2022-08-23T21:38:56.708Z,21.03
2022-08-23T21:41:31.937Z,21.19
2022-08-23T21:43:59.373Z,21.05
2022-08-23T21:46:27.056Z,20.91
2022-08-23T21:48:54.134Z,20.96
2022-08-23T21:51:21.225Z,20.77
2022-08-23T21:53:48.480Z,20.75
2022-08-23T21:56:15.635Z,20.95
2022-08-23T21:58:44.024Z,20.50
2022-08-23T22:01:11.211Z,20.72
2022-08-23T22:03:38.295Z,20.72
2022-08-23T22:06:11.663Z,20.90
2022-08-23T22:08:39.589Z,20.69
2022-08-23T22:11:07.665Z,20.68
2022-08-23T22:13:35.493Z,20.66
2022-08-23T22:16:03.079Z,20.67
2022-08-23T22:18:31.243Z,20.74
2022-08-23T22:20:59.479Z,20.87
2022-08-23T22:23:28.864Z,20.84
2022-08-23T22:25:57.828Z,20.48
2022-08-23T22:28:24.881Z,20.70
2022-08-23T22:30:52.949Z,20.62
2022-08-23T22:33:21.292Z,20.61
2022-08-23T22:35:49.010Z,20.32
2022-08-23T22:38:17.247Z,20.35
2022-08-23T22:40:49.337Z,20.26
2022-08-23T22:43:17.476Z,20.19
2022-08-23T22:45:53.475Z,20.14
2022-08-23T22:48:21.511Z,19.80
2022-08-23T22:50:49.023Z,19.97
2022-08-23T22:53:17.629Z,19.91
2022-08-23T22:55:50.541Z,19.76
2022-08-23T22:58:18.079Z,19.69
2022-08-23T23:00:45.319Z,19.69
2022-08-23T23:03:12.717Z,19.59
2022-08-23T23:05:40.047Z,19.66
2022-08-23T23:08:25.679Z,19.70
2022-08-23T23:10:58.199Z,19.50
2022-08-23T23:13:27.342Z,19.57
2022-08-23T23:15:54.577Z,19.49
2022-08-23T23:18:22.600Z,19.42
2022-08-23T23:20:49.989Z,19.42
2022-08-23T23:23:21.388Z,19.43
2022-08-23T23:25:49.507Z,19.33
2022-08-23T23:28:18.453Z,19.05
2022-08-23T23:30:48.421Z,19.14
2022-08-23T23:33:16.433Z,19.07
2022-08-23T23:35:43.949Z,19.17
2022-08-23T23:38:11.174Z,18.96
2022-08-23T23:40:39.007Z,19.09
2022-08-23T23:43:06.521Z,18.95
2022-08-23T23:45:37.223Z,18.68
2022-08-23T23:48:04.468Z,18.97
2022-08-23T23:50:39.715Z,18.85
2022-08-23T23:53:12.388Z,18.89
2022-08-23T23:55:39.480Z,18.76
2022-08-23T23:58:06.526Z,18.87
